Time;durP1;ratioP1;P1;durP2;ratioP2;P2;SDS_P1;SDS_P2;PMS_P1;PMS_P2;Temp;Humidity;BMP_temperature;BMP_pressure;BME280_temperature;BME280_humidity;BME280_pressure;Samples;Min_cycle;Max_cycle;Signal;HPM_P1;HPM_P2
2022/05/09 00:01:26;;;;;;;13.75;3.00;;;9.30;99.90;;;;;;5053891;28;20025;-64
2022/05/09 00:03:56;;;;;;;12.52;3.40;;;9.30;99.90;;;;;;5053849;28;20090;-62
2022/05/09 00:06:22;;;;;;;12.10;3.20;;;9.30;99.90;;;;;;5051826;28;20449;-64
2022/05/09 00:08:47;;;;;;;15.25;3.35;;;9.30;99.90;;;;;;5053763;28;20028;-62
2022/05/09 00:11:13;;;;;;;11.70;3.10;;;9.20;99.90;;;;;;5054295;28;20029;-63
2022/05/09 00:13:39;;;;;;;14.55;4.03;;;9.30;99.90;;;;;;5054316;28;20024;-62
2022/05/09 00:16:05;;;;;;;13.07;3.40;;;9.20;99.90;;;;;;5054129;28;20024;-62
2022/05/09 00:18:31;;;;;;;15.38;4.35;;;9.20;99.90;;;;;;5053732;28;20063;-62
2022/05/09 00:20:56;;;;;;;11.00;3.38;;;9.20;99.90;;;;;;5052982;28;20131;-63
2022/05/09 00:23:22;;;;;;;17.17;3.88;;;9.20;99.90;;;;;;5054007;28;20109;-62
2022/05/09 00:25:48;;;;;;;16.50;4.07;;;9.20;99.90;;;;;;5052751;28;20056;-62
2022/05/09 00:28:14;;;;;;;33.92;5.55;;;9.20;99.90;;;;;;5053741;28;20674;-62
2022/05/09 00:30:40;;;;;;;16.15;4.20;;;9.20;99.90;;;;;;5054290;28;20114;-62
2022/05/09 00:33:06;;;;;;;16.90;3.50;;;9.20;99.90;;;;;;5054633;28;20449;-62
2022/05/09 00:35:32;;;;;;;11.55;3.38;;;9.20;99.90;;;;;;5054598;28;20457;-62
2022/05/09 00:37:58;;;;;;;15.20;3.97;;;9.20;99.90;;;;;;5042653;28;20098;-62
2022/05/09 00:40:23;;;;;;;19.45;3.55;;;9.20;99.90;;;;;;5043422;28;20092;-62
2022/05/09 00:42:52;;;;;;;16.90;4.10;;;9.20;99.90;;;;;;5047518;28;20025;-62
2022/05/09 00:45:19;;;;;;;13.52;3.40;;;9.20;99.90;;;;;;5048641;28;20036;-62
2022/05/09 00:47:45;;;;;;;15.07;3.88;;;9.20;99.90;;;;;;5054427;28;20753;-66
2022/05/09 00:50:16;;;;;;;14.23;4.00;;;9.30;99.90;;;;;;5053281;28;20475;-63
2022/05/09 00:52:56;;;;;;;18.63;4.70;;;9.20;99.90;;;;;;5054759;28;20033;-61
2022/05/09 00:55:27;;;;;;;16.38;3.60;;;9.20;99.90;;;;;;5053374;28;20044;-62
2022/05/09 00:58:15;;;;;;;11.20;4.00;;;9.20;99.90;;;;;;5053215;28;20017;-62
2022/05/09 01:00:45;;;;;;;17.90;3.80;;;9.20;99.90;;;;;;5054432;28;20021;-62
2022/05/09 01:03:16;;;;;;;17.33;4.18;;;9.20;99.90;;;;;;5054036;28;20483;-62
2022/05/09 01:05:45;;;;;;;13.35;4.07;;;9.20;99.90;;;;;;5049815;28;20364;-65
2022/05/09 01:08:11;;;;;;;23.17;4.53;;;9.20;99.90;;;;;;5047069;28;20025;-62
2022/05/09 01:10:41;;;;;;;16.15;4.55;;;9.20;99.90;;;;;;5053967;28;20059;-62
2022/05/09 01:13:09;;;;;;;15.57;4.05;;;9.20;99.90;;;;;;5054129;28;20414;-62
2022/05/09 01:15:36;;;;;;;13.93;4.00;;;9.20;99.90;;;;;;5042618;28;20033;-62
2022/05/09 01:18:06;;;;;;;14.45;3.92;;;9.20;99.90;;;;;;5035422;28;20021;-62
2022/05/09 01:20:32;;;;;;;17.80;4.30;;;9.20;99.90;;;;;;5033994;28;20458;-63
2022/05/09 01:22:58;;;;;;;15.05;3.72;;;9.20;99.90;;;;;;5034081;28;20101;-63
2022/05/09 01:25:23;;;;;;;17.17;4.13;;;9.20;99.90;;;;;;5034053;28;20029;-63
2022/05/09 01:27:50;;;;;;;17.45;4.38;;;9.20;99.90;;;;;;5034197;28;20136;-63
2022/05/09 01:30:30;;;;;;;17.70;4.45;;;9.20;99.90;;;;;;5033698;28;20124;-62
2022/05/09 01:33:00;;;;;;;13.57;4.95;;;9.20;99.90;;;;;;5063651;28;20066;-62
2022/05/09 01:35:38;;;;;;;14.23;4.78;;;9.20;99.90;;;;;;5045745;28;20091;-63
2022/05/09 01:38:11;;;;;;;14.55;4.18;;;9.20;99.90;;;;;;5033645;28;20028;-63
2022/05/09 01:40:36;;;;;;;18.65;4.35;;;9.20;99.90;;;;;;5061637;28;20385;-63
2022/05/09 01:43:02;;;;;;;18.63;4.80;;;9.20;99.90;;;;;;5053137;28;20067;-62
2022/05/09 01:45:28;;;;;;;12.90;3.90;;;9.20;99.90;;;;;;5070886;28;20016;-62
2022/05/09 01:50:37;;;;;;;11.93;3.42;;;9.20;99.90;;;;;;5073179;28;20078;-63
2022/05/09 01:53:03;;;;;;;13.70;4.30;;;9.20;99.90;;;;;;5072003;28;20028;-63
2022/05/09 01:55:29;;;;;;;14.60;4.70;;;9.20;99.90;;;;;;5071854;28;20112;-63
2022/05/09 01:57:54;;;;;;;17.98;5.00;;;9.20;99.90;;;;;;5058370;28;20025;-62
2022/05/09 02:00:20;;;;;;;17.05;4.82;;;9.20;99.90;;;;;;5051870;28;20530;-62
2022/05/09 02:02:46;;;;;;;14.75;4.65;;;9.20;99.90;;;;;;5053031;28;20462;-62
2022/05/09 02:05:12;;;;;;;19.80;4.53;;;9.10;99.90;;;;;;5051870;28;20025;-61
2022/05/09 02:07:38;;;;;;;19.10;4.82;;;9.20;99.90;;;;;;5051804;28;20024;-63
2022/05/09 02:10:04;;;;;;;17.73;4.68;;;9.10;99.90;;;;;;5051841;28;20445;-62
2022/05/09 02:12:30;;;;;;;16.40;4.65;;;9.10;99.90;;;;;;5052547;28;20036;-62
2022/05/09 02:14:56;;;;;;;11.80;4.20;;;9.10;99.90;;;;;;5051326;28;20025;-62
2022/05/09 02:17:21;;;;;;;15.18;4.95;;;9.10;99.90;;;;;;5033701;28;20056;-63
2022/05/09 02:19:47;;;;;;;17.67;4.68;;;9.10;99.90;;;;;;5032921;28;20104;-63
2022/05/09 02:22:14;;;;;;;19.90;5.38;;;9.10;99.90;;;;;;5032759;28;20037;-63
2022/05/09 02:24:40;;;;;;;20.23;4.95;;;9.10;99.90;;;;;;5033011;28;20014;-63
2022/05/09 02:27:07;;;;;;;19.90;5.00;;;9.10;99.90;;;;;;5032518;28;20394;-63
2022/05/09 02:29:33;;;;;;;13.45;4.70;;;9.10;99.90;;;;;;5032985;28;20124;-63
2022/05/09 02:31:59;;;;;;;16.25;4.97;;;9.10;99.90;;;;;;5048049;28;20121;-63
2022/05/09 02:34:25;;;;;;;17.27;4.80;;;9.10;99.90;;;;;;5031525;28;20021;-63
2022/05/09 02:36:51;;;;;;;14.43;4.60;;;9.10;99.90;;;;;;5032609;28;20022;-63
2022/05/09 02:39:16;;;;;;;19.38;5.25;;;9.10;99.90;;;;;;5046904;28;20036;-62
2022/05/09 02:41:42;;;;;;;20.98;4.95;;;9.10;99.90;;;;;;5051075;28;20065;-62
2022/05/09 02:44:08;;;;;;;16.25;4.68;;;9.10;99.90;;;;;;5059056;28;20024;-62
2022/05/09 02:46:34;;;;;;;20.85;5.55;;;9.10;99.90;;;;;;5072646;28;20029;-62
2022/05/09 02:49:02;;;;;;;17.63;5.40;;;9.00;99.90;;;;;;5072394;28;20078;-62
2022/05/09 02:51:28;;;;;;;16.55;4.53;;;9.00;99.90;;;;;;5072655;28;20115;-62
2022/05/09 02:53:57;;;;;;;20.30;5.28;;;9.00;99.90;;;;;;5071769;28;20074;-62
2022/05/09 02:56:23;;;;;;;26.85;5.63;;;9.00;99.90;;;;;;5072385;28;20757;-62
2022/05/09 02:58:48;;;;;;;19.77;6.22;;;8.90;99.90;;;;;;5059560;28;20457;-62
2022/05/09 03:01:14;;;;;;;20.05;5.40;;;8.90;99.90;;;;;;5052177;28;20033;-62
2022/05/09 03:06:24;;;;;;;15.80;5.30;;;8.90;99.90;;;;;;5052018;28;20519;-62
2022/05/09 03:08:49;;;;;;;15.32;5.13;;;8.90;99.90;;;;;;5051998;28;20037;-62
2022/05/09 03:11:15;;;;;;;17.52;5.72;;;8.90;99.90;;;;;;5051084;28;20024;-63
2022/05/09 03:13:41;;;;;;;18.15;6.00;;;8.90;99.90;;;;;;5052325;28;20028;-63
2022/05/09 03:16:07;;;;;;;21.00;6.00;;;8.90;99.90;;;;;;5049210;28;20106;-63
2022/05/09 03:18:32;;;;;;;19.35;5.03;;;8.90;99.90;;;;;;5052512;28;20032;-63
2022/05/09 03:20:58;;;;;;;16.95;5.35;;;8.80;99.90;;;;;;5050532;28;20025;-63
2022/05/09 03:23:24;;;;;;;17.67;5.63;;;8.80;99.90;;;;;;5052380;28;20028;-63
2022/05/09 03:25:50;;;;;;;21.63;5.65;;;8.80;99.90;;;;;;5051943;28;20025;-63
2022/05/09 03:28:21;;;;;;;17.30;5.68;;;8.80;99.90;;;;;;5052074;28;20528;-63
2022/05/09 03:30:48;;;;;;;20.63;5.40;;;8.80;99.90;;;;;;5052194;28;20052;-62
2022/05/09 03:33:15;;;;;;;20.00;6.07;;;8.80;99.90;;;;;;5052437;28;20017;-61
2022/05/09 03:35:42;;;;;;;17.05;5.80;;;8.70;99.90;;;;;;5050652;28;20017;-63
2022/05/09 03:38:07;;;;;;;22.73;6.40;;;8.70;99.90;;;;;;5052294;28;20037;-62
2022/05/09 03:40:34;;;;;;;21.40;6.97;;;8.70;99.90;;;;;;5052020;28;20029;-62
2022/05/09 03:43:00;;;;;;;18.05;5.60;;;8.70;99.90;;;;;;5052004;28;20039;-62
2022/05/09 03:45:27;;;;;;;22.17;6.45;;;8.70;99.90;;;;;;5070541;28;20020;-63
2022/05/09 03:47:53;;;;;;;20.90;6.53;;;8.70;99.90;;;;;;5072035;28;20105;-62
2022/05/09 03:50:18;;;;;;;17.65;6.28;;;8.70;99.90;;;;;;5072121;28;20476;-62
2022/05/09 03:52:44;;;;;;;23.88;6.45;;;8.70;99.90;;;;;;5070639;28;20107;-62
2022/05/09 03:55:12;;;;;;;24.38;6.38;;;8.70;99.90;;;;;;5071897;28;20013;-62
2022/05/09 03:57:53;;;;;;;22.58;6.38;;;8.60;99.90;;;;;;5071822;28;20020;-63
2022/05/09 04:00:21;;;;;;;23.63;6.43;;;8.60;99.90;;;;;;5070435;28;20059;-62
2022/05/09 04:02:47;;;;;;;29.55;7.40;;;8.60;99.90;;;;;;5071570;28;20020;-62
2022/05/09 04:05:17;;;;;;;19.73;6.40;;;8.60;99.90;;;;;;5071655;28;20032;-63
2022/05/09 04:07:51;;;;;;;27.77;7.88;;;8.60;99.90;;;;;;5074834;28;20035;-62
2022/05/09 04:10:21;;;;;;;25.13;6.97;;;8.60;99.90;;;;;;5074988;28;20418;-62
2022/05/09 04:12:46;;;;;;;19.80;6.78;;;8.60;99.90;;;;;;5075193;28;20024;-63
2022/05/09 04:17:57;;;;;;;20.38;6.68;;;8.70;99.90;;;;;;5056142;28;20035;-62
2022/05/09 04:20:24;;;;;;;24.65;7.22;;;8.70;99.90;;;;;;5055201;28;20104;-63
2022/05/09 04:22:51;;;;;;;23.55;7.07;;;8.70;99.90;;;;;;5054883;28;20021;-63
2022/05/09 04:25:19;;;;;;;22.65;6.25;;;8.70;99.90;;;;;;5055152;28;20070;-63
2022/05/09 04:27:44;;;;;;;22.25;6.85;;;8.80;99.90;;;;;;5054583;28;20338;-63
2022/05/09 04:30:11;;;;;;;24.25;6.55;;;8.80;99.90;;;;;;5055215;28;20052;-62
2022/05/09 04:32:37;;;;;;;20.58;6.93;;;8.90;99.90;;;;;;5064918;28;20040;-62
2022/05/09 04:35:04;;;;;;;25.15;7.53;;;8.90;99.90;;;;;;5055229;28;20074;-62
2022/05/09 04:37:29;;;;;;;25.02;8.10;;;9.00;99.90;;;;;;5054672;28;20024;-63
2022/05/09 04:39:56;;;;;;;27.67;9.07;;;9.00;99.90;;;;;;5054557;28;20017;-62
2022/05/09 04:42:22;;;;;;;26.38;7.97;;;9.10;99.90;;;;;;5054170;28;20056;-62
2022/05/09 04:44:47;;;;;;;23.75;7.00;;;9.10;99.90;;;;;;5067736;28;20453;-62
2022/05/09 04:47:13;;;;;;;19.23;6.18;;;9.10;99.90;;;;;;5074432;28;20025;-63
2022/05/09 04:49:39;;;;;;;20.45;6.70;;;9.20;99.90;;;;;;5074582;28;20046;-62
2022/05/09 04:52:06;;;;;;;24.02;6.32;;;9.20;99.90;;;;;;5074399;28;20070;-62
2022/05/09 04:54:32;;;;;;;15.15;5.82;;;9.30;99.90;;;;;;5074279;28;20499;-63
2022/05/09 04:56:57;;;;;;;17.95;6.75;;;9.30;99.90;;;;;;5074293;28;20058;-63
2022/05/09 04:59:23;;;;;;;19.50;5.35;;;9.40;99.90;;;;;;5074510;28;20033;-63
2022/05/09 05:01:49;;;;;;;21.05;6.30;;;9.40;99.90;;;;;;5074249;28;20098;-62
2022/05/09 05:04:16;;;;;;;18.88;6.63;;;9.50;99.90;;;;;;5074370;28;20344;-61
2022/05/09 05:06:41;;;;;;;17.50;5.00;;;9.60;99.90;;;;;;5072981;28;20101;-62
2022/05/09 05:09:07;;;;;;;18.13;5.57;;;9.70;99.90;;;;;;5074375;28;20395;-62
2022/05/09 05:11:32;;;;;;;22.25;6.45;;;9.80;99.90;;;;;;5073590;28;20475;-63
2022/05/09 05:13:58;;;;;;;21.45;6.40;;;9.80;99.90;;;;;;5072627;28;20028;-63
2022/05/09 05:16:59;;;;;;;19.40;5.80;;;9.90;99.90;;;;;;5073681;28;20028;-63
2022/05/09 05:19:09;;;;;;;21.95;7.00;;;10.00;99.90;;;;;;5051257;28;20112;-62
2022/05/09 05:21:34;;;;;;;16.67;4.55;;;10.10;99.90;;;;;;5052831;28;20130;-63
2022/05/09 05:24:00;;;;;;;20.00;7.10;;;10.20;99.90;;;;;;5054086;28;20025;-62
2022/05/09 05:26:26;;;;;;;28.00;11.23;;;10.30;99.90;;;;;;5052812;28;20021;-62
2022/05/09 05:28:51;;;;;;;24.63;7.43;;;10.40;99.90;;;;;;5054075;28;20056;-62
2022/05/09 05:31:21;;;;;;;23.10;6.35;;;10.50;99.90;;;;;;5053543;28;20031;-62
2022/05/09 05:33:47;;;;;;;21.88;7.18;;;10.60;99.90;;;;;;5052285;28;20075;-62
2022/05/09 05:36:14;;;;;;;24.20;7.47;;;10.70;99.90;;;;;;5053501;28;20422;-62
2022/05/09 05:38:39;;;;;;;20.75;5.53;;;10.90;99.90;;;;;;5053309;28;20510;-62
2022/05/09 05:41:05;;;;;;;22.67;7.10;;;11.00;99.90;;;;;;5053514;28;20037;-62
2022/05/09 05:43:30;;;;;;;17.08;5.38;;;11.10;99.90;;;;;;5055896;28;20032;-62
2022/05/09 05:45:57;;;;;;;20.27;5.43;;;11.30;99.90;;;;;;5072339;28;20440;-65
2022/05/09 05:48:24;;;;;;;14.73;4.35;;;11.40;99.90;;;;;;5073238;28;20384;-67
2022/05/09 05:50:49;;;;;;;17.73;4.53;;;11.50;99.90;;;;;;5073668;28;20032;-65
2022/05/09 05:53:15;;;;;;;16.45;4.45;;;11.70;99.90;;;;;;5072982;28;20021;-63
2022/05/09 05:55:41;;;;;;;16.48;4.43;;;11.80;99.90;;;;;;5073235;28;20032;-62
2022/05/09 05:58:07;;;;;;;14.60;5.35;;;12.10;99.90;;;;;;5073177;28;20151;-63
2022/05/09 06:00:33;;;;;;;14.18;4.40;;;12.30;99.90;;;;;;5073152;28;20044;-62
2022/05/09 06:02:59;;;;;;;14.93;4.22;;;12.60;99.90;;;;;;5072929;28;20067;-63
2022/05/09 06:05:27;;;;;;;19.73;5.28;;;13.00;99.90;;;;;;5073422;28;20139;-62
2022/05/09 06:07:55;;;;;;;18.20;5.15;;;13.30;99.90;;;;;;5072687;28;20051;-62
2022/05/09 06:10:22;;;;;;;13.73;4.80;;;13.80;99.90;;;;;;5072944;28;20021;-64
2022/05/09 06:12:47;;;;;;;19.73;4.40;;;14.40;99.90;;;;;;5072467;28;20051;-65
2022/05/09 06:15:28;;;;;;;16.48;5.13;;;15.10;99.90;;;;;;5072885;28;20483;-62
2022/05/09 06:17:56;;;;;;;17.00;5.05;;;15.60;99.90;;;;;;5066535;28;23175;-67
2022/05/09 06:20:22;;;;;;;12.32;4.22;;;16.30;99.90;;;;;;5051686;28;20021;-63
2022/05/09 06:22:48;;;;;;;13.15;4.97;;;16.90;99.00;;;;;;5052847;28;20021;-62
2022/05/09 06:25:17;;;;;;;16.40;3.90;;;17.60;98.70;;;;;;5051513;28;20024;-62
2022/05/09 06:27:43;;;;;;;17.65;4.93;;;18.50;97.60;;;;;;5051218;28;20025;-62
2022/05/09 06:30:11;;;;;;;14.43;3.97;;;19.20;95.70;;;;;;5051494;28;20389;-62
2022/05/09 06:32:37;;;;;;;13.60;4.45;;;19.90;94.40;;;;;;5052749;28;20045;-62
2022/05/09 06:35:06;;;;;;;15.82;4.93;;;20.70;93.60;;;;;;5049288;28;20107;-62
2022/05/09 06:37:33;;;;;;;14.75;4.82;;;21.40;91.70;;;;;;5051166;28;20027;-62
2022/05/09 06:39:59;;;;;;;12.20;4.20;;;22.10;91.00;;;;;;5052550;28;20017;-62
2022/05/09 06:42:25;;;;;;;15.55;5.38;;;22.80;90.00;;;;;;5051501;28;20037;-62
2022/05/09 06:44:51;;;;;;;14.20;4.35;;;23.50;86.80;;;;;;5062294;28;20020;-62
2022/05/09 06:47:17;;;;;;;14.52;4.03;;;24.00;83.30;;;;;;5053975;28;20045;-63
2022/05/09 06:49:42;;;;;;;13.68;4.70;;;24.50;80.20;;;;;;5047977;28;20111;-63
2022/05/09 06:52:08;;;;;;;18.75;4.88;;;24.90;78.50;;;;;;5032624;28;20083;-62
2022/05/09 06:54:33;;;;;;;13.60;4.10;;;25.20;76.90;;;;;;5030957;28;20022;-63
2022/05/09 06:56:59;;;;;;;15.20;4.35;;;25.70;74.70;;;;;;5031705;28;20428;-63
2022/05/09 06:59:24;;;;;;;17.88;5.03;;;26.10;72.90;;;;;;5031519;28;20022;-63
2022/05/09 07:01:50;;;;;;;12.75;5.18;;;26.20;71.00;;;;;;5030469;28;20036;-63
2022/05/09 07:04:16;;;;;;;15.25;5.30;;;26.30;71.30;;;;;;5030876;28;20107;-62
2022/05/09 07:06:42;;;;;;;17.27;6.13;;;26.50;70.40;;;;;;5043577;28;20099;-63
2022/05/09 07:09:10;;;;;;;13.30;4.25;;;26.60;69.30;;;;;;5050095;28;20112;-63
2022/05/09 07:11:36;;;;;;;13.68;4.30;;;26.70;67.60;;;;;;5050599;28;20481;-62
2022/05/09 07:14:02;;;;;;;17.40;4.03;;;26.60;67.30;;;;;;5051733;28;20053;-62
2022/05/09 07:16:28;;;;;;;14.07;4.03;;;26.60;66.40;;;;;;5050145;28;20055;-62
2022/05/09 07:18:53;;;;;;;13.55;4.53;;;26.20;66.00;;;;;;5052221;28;20021;-61
2022/05/09 07:21:19;;;;;;;14.32;4.10;;;25.70;66.50;;;;;;5047121;28;20378;-62
2022/05/09 07:23:45;;;;;;;15.00;3.70;;;25.10;67.30;;;;;;5051494;28;20049;-62
2022/05/09 07:26:11;;;;;;;15.73;4.20;;;24.30;68.60;;;;;;5050341;28;20033;-62
2022/05/09 07:28:36;;;;;;;14.75;4.00;;;23.70;69.50;;;;;;5052175;28;20124;-61
2022/05/09 07:31:03;;;;;;;10.35;4.00;;;23.20;71.20;;;;;;5052390;28;20025;-62
2022/05/09 07:33:29;;;;;;;17.33;4.28;;;22.70;71.90;;;;;;5061047;28;20091;-62
2022/05/09 07:35:56;;;;;;;12.38;3.78;;;22.30;71.90;;;;;;5055499;28;20028;-62
2022/05/09 07:38:22;;;;;;;15.63;4.25;;;21.90;72.60;;;;;;5047938;28;20883;-62
2022/05/09 07:40:48;;;;;;;12.63;4.05;;;21.40;74.00;;;;;;5053647;28;20473;-62
2022/05/09 07:43:17;;;;;;;13.40;4.13;;;21.10;75.90;;;;;;5055006;28;20102;-61
2022/05/09 07:45:44;;;;;;;17.65;3.85;;;20.80;76.90;;;;;;5075094;28;20131;-61
2022/05/09 07:48:11;;;;;;;12.35;4.35;;;20.60;77.00;;;;;;5075401;28;20024;-62
2022/05/09 07:50:37;;;;;;;15.48;4.50;;;20.50;77.50;;;;;;5075643;28;20020;-62
2022/05/09 07:53:11;;;;;;;15.60;4.90;;;20.60;77.50;;;;;;5075276;28;20091;-62
2022/05/09 07:55:38;;;;;;;17.67;4.80;;;20.80;78.20;;;;;;5074951;28;20037;-62
2022/05/09 07:58:04;;;;;;;15.00;3.80;;;21.30;78.50;;;;;;5074791;28;20066;-63
2022/05/09 08:00:33;;;;;;;13.25;4.40;;;21.90;76.40;;;;;;5075683;28;20024;-63
2022/05/09 08:02:58;;;;;;;17.05;4.20;;;22.40;74.50;;;;;;5067472;28;20028;-64
2022/05/09 08:05:24;;;;;;;17.27;4.22;;;23.20;73.60;;;;;;5054905;28;20043;-62
2022/05/09 08:07:50;;;;;;;13.40;4.40;;;24.20;71.60;;;;;;5055302;28;20477;-65
2022/05/09 08:10:16;;;;;;;13.90;4.03;;;25.30;69.30;;;;;;5055449;28;20013;-63
2022/05/09 08:12:43;;;;;;;13.43;3.70;;;26.20;67.10;;;;;;5053874;28;20021;-65
2022/05/09 08:15:13;;;;;;;13.07;3.78;;;27.40;66.00;;;;;;5053882;28;20056;-64
2022/05/09 08:17:39;;;;;;;17.05;4.65;;;28.30;64.00;;;;;;5054010;28;20024;-65
2022/05/09 08:20:05;;;;;;;13.38;3.63;;;29.20;62.00;;;;;;5053679;28;20021;-62
2022/05/09 08:22:32;;;;;;;11.48;4.28;;;30.00;60.40;;;;;;5054919;28;20373;-64
2022/05/09 08:24:58;;;;;;;13.65;4.20;;;30.90;59.40;;;;;;5054676;28;20024;-65
2022/05/09 08:27:24;;;;;;;13.02;3.75;;;31.80;57.30;;;;;;5052924;28;20025;-67
2022/05/09 08:29:54;;;;;;;11.63;2.80;;;32.40;53.40;;;;;;5053738;28;20094;-67
2022/05/09 08:32:20;;;;;;;14.05;3.33;;;32.50;51.40;;;;;;5055045;28;20021;-65
2022/05/09 08:34:45;;;;;;;12.38;3.33;;;32.50;51.60;;;;;;5053758;28;20468;-63
2022/05/09 08:37:11;;;;;;;8.07;3.05;;;32.90;50.00;;;;;;5054636;28;20762;-65
2022/05/09 08:39:36;;;;;;;11.52;3.50;;;33.30;49.30;;;;;;5052280;28;20083;-64
2022/05/09 08:42:07;;;;;;;10.25;3.30;;;33.30;48.10;;;;;;5054037;28;20039;-64
2022/05/09 08:44:47;;;;;;;11.18;3.10;;;33.30;48.40;;;;;;5065639;28;20029;-64
2022/05/09 08:47:25;;;;;;;13.23;4.32;;;33.30;47.10;;;;;;5074528;28;20020;-63
2022/05/09 08:49:56;;;;;;;12.48;4.38;;;33.90;46.60;;;;;;5055617;28;20040;-65
2022/05/09 08:53:00;;;;;;;12.20;3.70;;;34.30;47.10;;;;;;5049199;28;20064;-64
2022/05/09 08:55:32;;;;;;;11.70;4.10;;;34.70;45.70;;;;;;5040406;28;20411;-63
2022/05/09 08:58:03;;;;;;;14.88;3.42;;;35.20;45.30;;;;;;5036410;28;20033;-66
2022/05/09 09:00:31;;;;;;;13.52;5.18;;;35.80;44.60;;;;;;5034300;28;20021;-61
2022/05/09 09:03:15;;;;;;;15.88;5.93;;;36.20;42.70;;;;;;5033765;28;20095;-63
2022/05/09 09:05:45;;;;;;;10.50;3.60;;;36.10;41.90;;;;;;5038982;28;20032;-64
2022/05/09 09:08:40;;;;;;;11.52;4.45;;;36.20;41.50;;;;;;5054283;28;20029;-63
2022/05/09 09:11:30;;;;;;;14.05;5.07;;;36.50;42.10;;;;;;5053269;28;20036;-65
2022/05/09 09:14:22;;;;;;;9.82;3.97;;;37.20;42.20;;;;;;5034197;28;20029;-65
2022/05/09 09:17:38;;;;;;;11.02;3.90;;;37.80;41.10;;;;;;5033855;28;20024;-63
2022/05/09 09:20:12;;;;;;;14.15;4.03;;;38.00;40.20;;;;;;5032256;28;20042;-65
2022/05/09 09:23:15;;;;;;;10.32;3.58;;;37.80;39.40;;;;;;5033864;28;20249;-62
2022/05/09 09:25:58;;;;;;;9.82;3.60;;;37.60;40.00;;;;;;5032261;28;20420;-62
2022/05/09 09:28:35;;;;;;;8.88;3.45;;;37.50;39.30;;;;;;5040723;28;20045;-65
2022/05/09 09:31:09;;;;;;;10.70;3.08;;;36.90;39.80;;;;;;5033848;28;20033;-62
2022/05/09 09:33:37;;;;;;;6.47;2.40;;;36.90;39.40;;;;;;5033653;28;20060;-66
2022/05/09 09:36:11;;;;;;;9.65;3.47;;;36.80;38.70;;;;;;5033381;28;20060;-65
2022/05/09 09:38:55;;;;;;;9.27;2.83;;;36.60;39.20;;;;;;5033968;28;20021;-64
2022/05/09 09:41:30;;;;;;;9.20;2.83;;;36.30;38.80;;;;;;5032753;28;20045;-61
2022/05/09 09:44:15;;;;;;;9.25;2.75;;;36.20;39.30;;;;;;5044946;28;20082;-66
2022/05/09 09:47:03;;;;;;;9.50;3.15;;;36.50;38.40;;;;;;5073280;28;20021;-63
2022/05/09 09:49:29;;;;;;;6.28;2.78;;;36.60;39.00;;;;;;5071758;28;20056;-63
2022/05/09 09:51:57;;;;;;;14.55;4.60;;;37.20;38.50;;;;;;5054681;28;20036;-62
2022/05/09 09:54:35;;;;;;;10.30;3.20;;;37.60;38.30;;;;;;5051816;28;20059;-65
2022/05/09 09:57:23;;;;;;;11.35;2.85;;;37.70;37.70;;;;;;5041843;28;20044;-62
2022/05/09 09:59:49;;;;;;;8.30;2.97;;;37.50;37.60;;;;;;5038016;28;20025;-63
2022/05/09 10:02:30;;;;;;;9.20;3.17;;;36.90;37.70;;;;;;5052911;28;20377;-64
2022/05/09 10:04:57;;;;;;;5.00;2.08;;;36.50;37.80;;;;;;5068214;28;20403;-65
2022/05/09 10:07:32;;;;;;;8.25;2.42;;;36.60;37.00;;;;;;5072478;28;20119;-64
2022/05/09 10:10:05;;;;;;;5.32;2.45;;;36.70;36.60;;;;;;5056363;28;20196;-65
2022/05/09 10:12:32;;;;;;;12.27;3.40;;;36.90;37.10;;;;;;5052907;28;20491;-67
2022/05/09 10:14:59;;;;;;;6.57;2.50;;;37.00;37.30;;;;;;5052430;28;20029;-63
2022/05/09 10:17:25;;;;;;;9.90;3.67;;;36.90;37.50;;;;;;5051869;28;20035;-65
2022/05/09 10:19:53;;;;;;;6.07;2.40;;;37.10;37.10;;;;;;5070561;28;20507;-64
2022/05/09 10:25:23;;;;;;;8.30;2.33;;;37.40;36.60;;;;;;5061716;28;20028;-66
2022/05/09 10:28:18;;;;;;;8.18;2.88;;;37.70;36.60;;;;;;5072517;28;20119;-64
2022/05/09 10:30:48;;;;;;;7.57;4.38;;;38.00;36.30;;;;;;5072406;28;20119;-66
2022/05/09 10:33:49;;;;;;;9.65;2.85;;;38.10;36.60;;;;;;5059721;28;20120;-63
2022/05/09 10:36:26;;;;;;;8.90;2.78;;;38.40;36.10;;;;;;5060173;28;20456;-63
2022/05/09 10:39:10;;;;;;;7.75;2.40;;;38.40;35.70;;;;;;5059793;28;20115;-65
2022/05/09 10:42:01;;;;;;;7.38;2.53;;;37.70;35.70;;;;;;5052775;28;20029;-64
2022/05/09 10:44:39;;;;;;;7.17;2.37;;;36.90;36.20;;;;;;5032444;28;20018;-63
2022/05/09 10:47:35;;;;;;;5.93;2.60;;;37.00;36.20;;;;;;5032136;28;20018;-64
2022/05/09 10:50:23;;;;;;;8.82;2.80;;;37.70;36.30;;;;;;5032095;28;20024;-65
2022/05/09 10:53:09;;;;;;;8.63;2.70;;;37.70;35.80;;;;;;5031094;28;20068;-62
2022/05/09 10:55:41;;;;;;;5.72;2.60;;;37.30;36.00;;;;;;5032154;28;20032;-62
2022/05/09 10:58:49;;;;;;;15.65;3.50;;;37.10;36.20;;;;;;5032384;28;20028;-63
2022/05/09 11:01:32;;;;;;;9.60;3.70;;;37.30;36.20;;;;;;5019726;28;20461;-65
2022/05/09 11:03:57;;;;;;;8.82;3.03;;;38.20;35.80;;;;;;5030915;28;20094;-62
2022/05/09 11:06:59;;;;;;;10.27;3.10;;;38.70;35.80;;;;;;5032231;28;20466;-63
2022/05/09 11:09:45;;;;;;;;;;;39.10;35.90;;;;;;5057692;28;20491;-66
2022/05/09 11:12:36;;;;;;;8.95;3.95;;;39.30;35.80;;;;;;5071775;28;19908;-65
2022/05/09 11:15:17;;;;;;;7.78;2.83;;;39.20;35.90;;;;;;5071470;28;20104;-65
2022/05/09 11:17:58;;;;;;;8.00;3.28;;;38.80;36.00;;;;;;5057424;28;20056;-65
2022/05/09 11:20:45;;;;;;;8.68;3.20;;;38.90;36.00;;;;;;5055462;28;20033;-63
2022/05/09 11:23:43;;;;;;;7.90;3.35;;;39.00;36.00;;;;;;5055333;28;20056;-64
2022/05/09 11:26:21;;;;;;;10.30;3.30;;;39.30;35.50;;;;;;5054940;28;20021;-64
2022/05/09 11:29:23;;;;;;;12.00;3.85;;;39.30;35.50;;;;;;5054859;28;20049;-66
2022/05/09 11:32:19;;;;;;;10.80;3.50;;;38.70;35.60;;;;;;5050006;28;20044;-61
2022/05/09 11:34:54;;;;;;;8.98;2.97;;;38.00;36.10;;;;;;5054787;28;20021;-65
2022/05/09 11:37:45;;;;;;;5.95;2.78;;;37.90;36.20;;;;;;5035846;28;20438;-64
2022/05/09 11:40:36;;;;;;;9.15;3.42;;;38.30;35.90;;;;;;5037972;28;20021;-63
2022/05/09 11:43:29;;;;;;;9.38;2.90;;;39.00;36.30;;;;;;5055296;28;20515;-64
2022/05/09 11:46:20;;;;;;;8.05;3.17;;;39.60;35.40;;;;;;5055173;28;20060;-65
2022/05/09 11:49:11;;;;;;;6.03;2.80;;;39.80;35.10;;;;;;5055186;28;20158;-64
2022/05/09 11:51:55;;;;;;;8.82;2.92;;;38.60;35.50;;;;;;5053424;28;20036;-65
2022/05/09 11:54:29;;;;;;;6.78;3.13;;;38.10;36.10;;;;;;5055416;28;20050;-63
2022/05/09 11:57:17;;;;;;;6.30;2.90;;;37.90;36.10;;;;;;5054956;28;20090;-64
2022/05/09 11:59:51;;;;;;;6.47;3.00;;;38.00;36.10;;;;;;5055059;28;20035;-63
2022/05/09 12:02:45;;;;;;;7.03;2.90;;;38.50;36.00;;;;;;5054864;28;20029;-66
2022/05/09 12:05:26;;;;;;;5.47;2.95;;;39.10;35.50;;;;;;5054932;28;20021;-66
2022/05/09 12:07:56;;;;;;;7.50;2.67;;;39.00;35.30;;;;;;5043649;28;20027;-63
2022/05/09 12:10:28;;;;;;;9.65;3.28;;;38.40;35.70;;;;;;5053015;28;20143;-67
2022/05/09 12:13:04;;;;;;;11.38;3.10;;;38.00;35.70;;;;;;5054726;28;20033;-64
2022/05/09 12:15:29;;;;;;;10.30;3.08;;;37.90;36.00;;;;;;5054722;28;20160;-63
2022/05/09 12:17:57;;;;;;;8.52;3.30;;;38.10;35.80;;;;;;5049958;28;20451;-63
2022/05/09 12:20:29;;;;;;;10.63;2.95;;;38.40;35.60;;;;;;5051878;28;20021;-61
2022/05/09 12:23:03;;;;;;;10.65;3.67;;;38.90;35.60;;;;;;5066602;28;20025;-61
2022/05/09 12:25:38;;;;;;;7.38;2.95;;;39.20;35.40;;;;;;5036569;28;20037;-62
2022/05/09 12:28:24;;;;;;;9.75;3.13;;;38.40;35.90;;;;;;5034515;28;20108;-62
2022/05/09 12:30:59;;;;;;;7.18;3.08;;;37.90;36.20;;;;;;5034922;28;20139;-63
2022/05/09 12:33:30;;;;;;;12.50;3.20;;;37.20;36.50;;;;;;5038371;28;20021;-63
2022/05/09 12:36:03;;;;;;;7.55;3.28;;;36.50;37.50;;;;;;5048058;28;20029;-62
2022/05/09 12:38:33;;;;;;;8.45;2.80;;;36.10;36.90;;;;;;5035735;28;20052;-62
2022/05/09 12:41:02;;;;;;;9.73;3.20;;;36.10;36.80;;;;;;5054594;28;20036;-65
2022/05/09 12:43:29;;;;;;;7.68;3.17;;;35.80;37.10;;;;;;5054427;28;20021;-64
2022/05/09 12:45:56;;;;;;;10.63;3.10;;;35.60;37.20;;;;;;5054268;28;20021;-62
2022/05/09 12:48:22;;;;;;;6.03;2.63;;;35.30;37.20;;;;;;5054320;28;20025;-62
2022/05/09 12:50:47;;;;;;;11.68;3.53;;;35.00;37.30;;;;;;5054784;28;20037;-64
2022/05/09 12:53:17;;;;;;;9.30;3.20;;;34.30;38.40;;;;;;5046211;28;20060;-61
2022/05/09 12:55:52;;;;;;;10.10;3.50;;;33.50;39.10;;;;;;5034839;28;20057;-61
2022/05/09 12:58:23;;;;;;;8.40;3.53;;;33.10;39.30;;;;;;5045261;28;20164;-62
2022/05/09 13:00:49;;;;;;;9.17;3.77;;;32.90;39.40;;;;;;5054214;28;20025;-62
2022/05/09 13:03:14;;;;;;;9.93;3.45;;;32.70;39.50;;;;;;5058212;28;20254;-64
2022/05/09 13:05:43;;;;;;;10.10;3.22;;;32.50;39.70;;;;;;5074372;28;20029;-64
2022/05/09 13:08:13;;;;;;;9.77;3.38;;;32.30;40.10;;;;;;5059516;28;20028;-64
2022/05/09 13:10:57;;;;;;;9.98;3.65;;;32.00;40.20;;;;;;5054248;28;20055;-62
2022/05/09 13:13:29;;;;;;;9.73;3.25;;;31.70;40.70;;;;;;5054249;28;20021;-62